Airfield :
LOGIN :

Register | Disclaimer

   EN    FR    IT 

 










Legend :    VFR   Marginal VFR   IFR   Intensive IFR   Very Intensive IFR
Visi :
Ceiling :
>= 8 km
>= 3000ft
5 to 8 km
1000 to 3000 ft
1500m to 5 km
500 to 1000 ft
800 to 1500m
200 to 500 ft
< 800m
< 200 ft
Symbols :   Thunderstorms  Fog  Heavy snow  Heavy precipitations  Wind > 20 kt
SIGMETs :     Misc.  Thunderstorms  Icing  Turbulence  Mountain Waves  Volcanic Ashes







- Airport Elevation : 200 ft


EBBL - Klein Brogel AB

CURRENT METAR :
  • 190855Z AUTO 32004KT 5000 FEW009/// SCT010/// BKN092/// 16/13 Q1006 GRN

EXPIRED METARs :
  • 190825Z AUTO 35004KT 4600 BR BKN009/// 16/14 Q1006 GRN
  • 190813Z AUTO 30003KT 3700 BR BKN008/// 16/13 Q1006 GRN
  • 190755Z AUTO 34003KT 3600 BR BKN007/// 16/13 Q1006 YLO
  • 190725Z AUTO 32004KT 3200 BR FEW007/// BKN080/// 15/13 Q1006 YLO
  • 190655Z AUTO 32003KT 3200 BR FEW006/// SCT084/// 14/13 Q1006 YLO
  • 190625Z AUTO VRB02KT 3300 BR FEW006/// SCT082/// 14/13 Q1006 YLO
  • 190555Z AUTO VRB01KT 3500 BR SCT006/// BKN065/// 14/12 Q1006 YLO

Expired Forecast.
No reported NOTAMs for that airfield.



MET'MAP, your aeronautical weather chart ! - Copyright ORBIFLY December 2007 - Disclaimer

ORBIFLY MET'MAP TEAM :

Programming & Development : Alexandra Zaïnal
Concept & Development : Baudouin d'Aumeries
Co-Development & Prog : Marc-Olivier Méhu
Technical & hardware support : Manuel Goepfert

Contact : metmap@orbifly.com




SOURCES & CREDITS :

   NOAA